Time;durP1;ratioP1;P1;durP2;ratioP2;P2;SDS_P1;SDS_P2;PMS_P1;PMS_P2;Temp;Humidity;BMP_temperature;BMP_pressure;BME280_temperature;BME280_humidity;BME280_pressure;Samples;Min_cycle;Max_cycle;Signal;HPM_P1;HPM_P2
2022/11/05 00:10:15;;;;;;;4.97;4.68;;;;;;;5.64;100.00;101076.75;6045314;23;20128;-72
2022/11/05 00:18:11;;;;;;;5.45;5.15;;;;;;;5.11;100.00;101004.34;6064311;23;20606;-72
2022/11/05 00:20:38;;;;;;;5.18;4.78;;;;;;;5.66;100.00;101110.56;6043522;23;20043;-72
2022/11/05 00:25:54;;;;;;;5.65;5.22;;;;;;;5.04;100.00;101009.72;6046150;23;20053;-71
2022/11/05 00:28:20;;;;;;;4.85;4.57;;;;;;;5.22;100.00;101050.91;6077447;23;20116;-73
2022/11/05 00:30:47;;;;;;;5.57;5.03;;;;;;;4.75;100.00;100991.34;6048722;23;20033;-74
2022/11/05 00:33:14;;;;;;;5.47;5.13;;;;;;;5.65;100.00;101129.69;6078274;23;20086;-71
2022/11/05 00:35:40;;;;;;;6.53;6.00;;;;;;;5.58;100.00;101106.41;6043154;23;20034;-70
2022/11/05 00:38:06;;;;;;;5.43;5.03;;;;;;;5.58;100.00;101115.97;6043192;23;20018;-71
2022/11/05 00:40:33;;;;;;;5.43;5.03;;;;;;;5.74;100.00;101137.28;6042825;23;20022;-72
2022/11/05 00:45:45;;;;;;;5.95;4.88;;;;;;;5.31;100.00;101094.94;6073095;23;20081;-72
2022/11/05 00:50:56;;;;;;;6.60;5.88;;;;;;;5.57;100.00;101153.28;6070241;23;20409;-70
2022/11/05 00:53:22;;;;;;;6.15;5.72;;;;;;;5.38;100.00;101130.31;6044657;23;20211;-71
2022/11/05 00:55:49;;;;;;;5.60;5.20;;;;;;;5.28;100.00;101115.81;6069029;23;20088;-70
2022/11/05 00:58:18;;;;;;;5.50;5.20;;;;;;;5.06;100.00;101083.38;6042570;23;20039;-72
2022/11/05 01:00:53;;;;;;;4.68;4.38;;;;;;;4.67;100.00;101032.25;6077149;23;20098;-71
2022/11/05 01:03:23;;;;;;;4.85;4.55;;;;;;;5.00;100.00;101084.38;6051035;23;20602;-71
2022/11/05 01:05:55;;;;;;;5.00;4.53;;;;;;;5.46;100.00;101157.91;6076049;23;20081;-72
2022/11/05 01:08:23;;;;;;;5.30;5.00;;;;;;;5.40;100.00;101161.50;6044004;23;20600;-72
2022/11/05 01:10:56;;;;;;;4.80;4.50;;;;;;;5.31;100.00;101144.38;6078697;23;20064;-72
2022/11/05 01:13:32;;;;;;;14.93;13.93;;;;;;;5.29;100.00;101140.97;5987251;23;20191;-70
2022/11/05 01:16:04;;;;;;;4.80;4.55;;;;;;;5.02;100.00;101111.22;6034270;23;20014;-73
2022/11/05 01:18:31;;;;;;;5.93;5.35;;;;;;;4.58;100.00;101040.25;6043018;23;20042;-72
2022/11/05 01:20:57;;;;;;;4.82;4.53;;;;;;;4.93;100.00;101101.88;6078573;23;20068;-73
2022/11/05 01:23:23;;;;;;;5.95;5.55;;;;;;;5.29;100.00;101177.41;6046298;23;20033;-73
2022/11/05 01:25:50;;;;;;;4.47;4.28;;;;;;;4.73;100.00;101102.31;6034875;23;20030;-71
2022/11/05 01:28:16;;;;;;;5.72;5.22;;;;;;;5.17;100.00;101182.84;6047824;23;20046;-73
2022/11/05 01:30:54;;;;;;;4.57;4.32;;;;;;;4.75;100.00;101120.47;6040548;23;20558;-73
2022/11/05 01:33:20;;;;;;;5.57;5.18;;;;;;;4.99;100.00;101181.50;6048091;23;21200;-72
2022/11/05 01:35:50;;;;;;;6.47;6.00;;;;;;;5.13;100.00;101207.22;6032737;23;20084;-73
2022/11/05 01:38:17;;;;;;;4.72;4.43;;;;;;;4.19;100.00;101055.78;6030665;23;20350;-70
2022/11/05 01:40:44;;;;;;;9.07;5.22;;;;;;;5.10;100.00;101213.34;6043377;23;20026;-71
2022/11/05 01:43:16;;;;;;;5.45;5.05;;;;;;;4.58;100.00;101128.63;6072811;23;20021;-72
2022/11/05 01:45:46;;;;;;;4.60;4.38;;;;;;;4.67;100.00;101145.75;6007930;23;20052;-72
2022/11/05 01:48:17;;;;;;;5.20;4.60;;;;;;;4.88;100.00;101183.47;6073534;23;20101;-72
2022/11/05 01:50:55;;;;;;;5.00;4.60;;;;;;;5.03;100.00;101206.53;6039870;23;20038;-71
2022/11/05 01:53:33;;;;;;;4.80;4.40;;;;;;;5.01;100.00;101216.13;6050299;23;20096;-70
2022/11/05 01:56:05;;;;;;;4.68;4.38;;;;;;;4.72;100.00;101178.59;6037346;23;20023;-70
2022/11/05 01:58:40;;;;;;;4.47;4.18;;;;;;;4.54;100.00;101148.63;6068478;23;20022;-72
2022/11/05 02:01:07;;;;;;;5.93;5.47;;;;;;;4.99;100.00;101225.72;6051519;23;20026;-72
2022/11/05 02:03:34;;;;;;;4.72;4.43;;;;;;;4.85;100.00;101196.53;6068647;23;20024;-71
2022/11/05 02:06:02;;;;;;;5.45;5.05;;;;;;;4.76;100.00;101174.19;6050233;23;20021;-71
2022/11/05 02:09:04;;;;;;;5.13;4.75;;;;;;;4.68;100.00;101139.69;6072505;23;20049;-70
2022/11/05 02:11:31;;;;;;;4.40;4.20;;;;;;;5.18;100.00;101229.66;6047050;23;20080;-72
2022/11/05 02:13:58;;;;;;;4.88;4.57;;;;;;;4.72;100.00;101160.38;6039309;23;20096;-71
2022/11/05 02:16:33;;;;;;;4.32;4.10;;;;;;;5.16;100.00;101231.44;6026279;23;20363;-71
2022/11/05 02:19:26;;;;;;;5.15;4.75;;;;;;;5.10;100.00;101222.91;6038145;23;20081;-71
2022/11/05 02:22:01;;;;;;;7.23;4.77;;;;;;;5.04;100.00;101228.25;6065078;23;20030;-71
2022/11/05 02:25:00;;;;;;;6.00;4.68;;;;;;;4.97;100.00;101224.88;6040005;23;20532;-72
2022/11/05 02:27:45;;;;;;;4.25;4.03;;;;;;;4.69;100.00;101202.06;6064482;23;20515;-71
2022/11/05 02:30:42;;;;;;;4.93;4.53;;;;;;;4.85;100.00;101235.53;6008447;23;20062;-71
2022/11/05 02:33:15;;;;;;;5.88;5.10;;;;;;;4.76;100.00;101241.78;6036509;23;20035;-72
2022/11/05 02:35:44;;;;;;;5.88;5.47;;;;;;;4.73;100.00;101239.22;6046519;23;20090;-70
2022/11/05 02:38:50;;;;;;;5.10;4.70;;;;;;;4.69;100.00;101246.25;6045943;23;20036;-71
2022/11/05 02:41:19;;;;;;;4.55;4.28;;;;;;;4.70;100.00;101241.91;6048567;23;20010;-71
2022/11/05 02:43:49;;;;;;;4.65;4.35;;;;;;;4.35;100.00;101188.81;6053931;23;20118;-71
2022/11/05 02:46:27;;;;;;;4.03;3.83;;;;;;;4.84;100.00;101239.03;6044964;23;20115;-72
2022/11/05 02:49:30;;;;;;;5.10;4.80;;;;;;;4.65;100.00;101197.81;6035492;23;20513;-71
2022/11/05 02:52:00;;;;;;;4.95;4.72;;;;;;;4.99;100.00;101244.81;6049644;23;20018;-71
2022/11/05 02:54:41;;;;;;;4.53;4.18;;;;;;;4.55;100.00;101173.72;6039338;23;20689;-71
2022/11/05 02:57:08;;;;;;;4.97;4.47;;;;;;;4.46;100.00;101155.72;6085485;23;20367;-71
2022/11/05 02:59:34;;;;;;;4.80;4.50;;;;;;;3.93;100.00;101048.47;6048055;23;20457;-72
2022/11/05 03:02:02;;;;;;;4.78;4.47;;;;;;;4.72;100.00;101177.72;6082075;23;20088;-70
2022/11/05 03:04:30;;;;;;;5.30;4.90;;;;;;;5.19;100.00;101244.38;6035469;23;20071;-72
2022/11/05 03:07:09;;;;;;;4.95;4.65;;;;;;;5.21;100.00;101233.91;6083924;23;20073;-72
2022/11/05 03:09:38;;;;;;;5.25;4.95;;;;;;;5.20;100.00;101240.03;6051968;23;20022;-72
2022/11/05 03:12:05;;;;;;;6.20;5.70;;;;;;;5.20;100.00;101233.06;6082142;23;20077;-71
2022/11/05 03:14:48;;;;;;;5.15;4.75;;;;;;;4.72;100.00;101175.97;6019439;23;20023;-72
2022/11/05 03:17:37;;;;;;;5.22;4.45;;;;;;;4.72;100.00;101186.38;6052401;23;20037;-72
2022/11/05 03:20:07;;;;;;;6.28;5.80;;;;;;;4.98;100.00;101234.41;6046296;23;20023;-72
2022/11/05 03:22:39;;;;;;;15.60;4.15;;;;;;;4.75;100.00;101198.47;6037392;23;20026;-70
2022/11/05 03:25:13;;;;;;;4.85;4.50;;;;;;;4.70;100.00;101198.56;6044613;23;20010;-71
2022/11/05 03:27:44;;;;;;;4.30;4.00;;;;;;;4.23;100.00;101132.78;6041739;23;20265;-72
2022/11/05 03:30:13;;;;;;;4.30;4.10;;;;;;;4.47;100.00;101178.22;6047168;23;20026;-72
2022/11/05 03:32:45;;;;;;;4.47;4.07;;;;;;;4.68;100.00;101215.09;6054612;23;20023;-73
2022/11/05 03:35:37;;;;;;;4.60;4.30;;;;;;;4.77;100.00;101240.88;6013811;23;20027;-72
2022/11/05 03:38:13;;;;;;;4.80;4.53;;;;;;;4.25;100.00;101162.19;6069118;23;20006;-72
2022/11/05 03:40:41;;;;;;;4.47;4.18;;;;;;;4.69;100.00;101251.47;6046798;23;20304;-71
2022/11/05 03:43:08;;;;;;;3.95;3.70;;;;;;;4.30;100.00;101209.72;6079863;23;20555;-70
2022/11/05 03:45:43;;;;;;;4.28;4.03;;;;;;;4.53;100.00;101258.69;6053832;23;20029;-71
2022/11/05 03:48:11;;;;;;;4.90;4.35;;;;;;;3.98;100.00;101200.72;6046392;23;20487;-71
2022/11/05 03:50:44;;;;;;;4.65;4.35;;;;;;;4.38;100.00;101266.75;6081615;23;20022;-72
2022/11/05 03:53:23;;;;;;;5.15;4.80;;;;;;;4.33;100.00;101263.34;6049753;23;20015;-71
2022/11/05 03:56:02;;;;;;;4.30;4.10;;;;;;;3.76;100.00;101178.59;6080465;23;20480;-70
2022/11/05 03:58:29;;;;;;;4.32;4.07;;;;;;;3.99;100.00;101235.38;6007285;23;20054;-71
2022/11/05 04:00:59;;;;;;;5.05;4.75;;;;;;;4.09;100.00;101244.72;6042967;23;20469;-71
2022/11/05 04:03:26;;;;;;;4.45;4.15;;;;;;;4.27;100.00;101268.66;6015788;23;20015;-70
2022/11/05 04:14:09;;;;;;;4.85;4.60;;;;;;;3.66;100.00;101219.41;6048161;23;20050;-71
2022/11/05 04:24:51;;;;;;;4.20;4.00;;;;;;;3.76;100.00;101241.75;6041133;23;20042;-70
2022/11/05 04:27:17;;;;;;;4.15;3.95;;;;;;;3.93;100.00;101276.97;6081856;23;20093;-71
2022/11/05 04:32:28;;;;;;;4.50;4.25;;;;;;;4.21;100.00;101319.00;6074306;23;20085;-73
2022/11/05 04:34:54;;;;;;;4.90;4.55;;;;;;;3.85;100.00;101227.81;6042573;23;20038;-72
2022/11/05 04:37:21;;;;;;;4.25;4.00;;;;;;;3.70;100.00;101195.13;6033820;23;20026;-72
2022/11/05 04:39:47;;;;;;;5.10;4.75;;;;;;;4.38;100.00;101297.91;6045380;23;20104;-71
2022/11/05 04:42:14;;;;;;;3.92;3.72;;;;;;;4.10;100.00;101235.19;6050633;23;20077;-72
2022/11/05 04:44:40;;;;;;;4.28;3.97;;;;;;;4.39;100.00;101277.13;6076947;23;20022;-72
2022/11/05 04:47:06;;;;;;;4.43;4.15;;;;;;;3.92;100.00;101203.44;6043017;23;20022;-72
2022/11/05 04:49:33;;;;;;;4.10;3.85;;;;;;;4.15;100.00;101231.63;6069919;23;20015;-73
2022/11/05 04:51:59;;;;;;;5.53;5.13;;;;;;;3.92;100.00;101206.03;6049763;23;20413;-72
2022/11/05 04:54:26;;;;;;;5.78;4.10;;;;;;;4.42;100.00;101289.19;6069392;23;20370;-73
2022/11/05 04:56:52;;;;;;;5.05;4.75;;;;;;;3.90;100.00;101246.75;6050806;23;20082;-71
2022/11/05 04:59:18;;;;;;;4.35;4.10;;;;;;;4.07;100.00;101271.56;6042665;23;20077;-73
2022/11/05 05:01:45;;;;;;;5.15;4.75;;;;;;;3.55;100.00;101208.38;6052803;23;20042;-72
2022/11/05 05:04:11;;;;;;;4.90;4.22;;;;;;;3.74;100.00;101259.09;6041850;23;20073;-71
2022/11/05 05:06:38;;;;;;;3.88;3.67;;;;;;;3.78;100.00;101294.50;6047528;23;20034;-72
2022/11/05 05:09:04;;;;;;;3.75;3.55;;;;;;;3.29;100.00;101219.97;6008244;23;20023;-72
2022/11/05 05:11:30;;;;;;;5.30;4.90;;;;;;;3.66;100.00;101281.72;6020434;23;20077;-72
2022/11/05 05:13:57;;;;;;;4.63;4.32;;;;;;;3.49;100.00;101281.06;6035861;23;20031;-72
2022/11/05 05:16:25;;;;;;;5.10;4.70;;;;;;;3.64;100.00;101300.78;6045926;23;20442;-71
2022/11/05 05:18:53;;;;;;;4.90;4.60;;;;;;;3.57;100.00;101303.47;6039494;23;20040;-71
2022/11/05 05:21:40;;;;;;;5.70;5.30;;;;;;;2.60;100.00;101149.09;6074780;23;20030;-71
2022/11/05 05:24:15;;;;;;;4.43;4.22;;;;;;;3.50;100.00;101306.16;6042802;23;20562;-72
2022/11/05 05:26:44;;;;;;;4.65;4.35;;;;;;;3.20;100.00;101266.75;6078322;23;20101;-71
2022/11/05 05:29:10;;;;;;;4.22;3.97;;;;;;;3.37;100.00;101308.06;6040598;23;20022;-70
2022/11/05 05:31:37;;;;;;;6.28;5.55;;;;;;;3.25;100.00;101284.84;6048332;23;20030;-71
2022/11/05 05:34:05;;;;;;;5.35;4.90;;;;;;;2.82;100.00;101224.00;6072392;23;20160;-72
2022/11/05 05:36:32;;;;;;;4.63;4.32;;;;;;;3.03;100.00;101253.13;6045648;23;20034;-72
2022/11/05 05:38:58;;;;;;;4.70;4.50;;;;;;;3.04;100.00;101260.91;6038252;23;20031;-72
2022/11/05 05:41:25;;;;;;;4.80;4.40;;;;;;;3.32;100.00;101308.09;6038001;23;20512;-72
2022/11/05 05:43:51;;;;;;;6.47;4.20;;;;;;;2.84;100.00;101257.69;6068424;23;20033;-71
2022/11/05 05:46:18;;;;;;;4.70;4.32;;;;;;;2.86;100.00;101236.03;6038266;23;20069;-71
2022/11/05 05:48:51;;;;;;;4.47;4.18;;;;;;;3.35;100.00;101313.28;6047275;23;20492;-71
2022/11/05 05:51:18;;;;;;;7.88;4.35;;;;;;;2.75;100.00;101215.44;6068780;23;20015;-71
2022/11/05 05:53:45;;;;;;;4.60;4.30;;;;;;;2.93;100.00;101257.59;6049415;23;20080;-71
2022/11/05 05:56:13;;;;;;;4.40;4.07;;;;;;;2.83;100.00;101233.50;6011541;23;20011;-71
2022/11/05 05:58:40;;;;;;;4.30;4.00;;;;;;;3.34;100.00;101313.28;6046847;23;20014;-71
2022/11/05 06:01:16;;;;;;;4.68;4.38;;;;;;;3.40;100.00;101315.78;6040991;23;20082;-72
2022/11/05 06:03:46;;;;;;;5.32;4.95;;;;;;;3.48;100.00;101329.53;6076400;23;20483;-71
2022/11/05 06:06:14;;;;;;;4.82;4.53;;;;;;;3.45;100.00;101337.38;6054551;23;20022;-71
2022/11/05 06:08:41;;;;;;;4.47;4.10;;;;;;;3.12;100.00;101289.34;6075359;23;20172;-70
2022/11/05 06:11:08;;;;;;;6.10;5.68;;;;;;;3.39;100.00;101340.03;6044457;23;20023;-72
2022/11/05 06:13:35;;;;;;;5.13;4.65;;;;;;;3.23;100.00;101326.41;6071820;23;20026;-71
2022/11/05 06:16:07;;;;;;;4.22;3.78;;;;;;;3.26;100.00;101328.94;6047301;23;20091;-72
2022/11/05 06:18:34;;;;;;;4.70;4.40;;;;;;;3.32;100.00;101354.81;6041096;23;20125;-71
2022/11/05 06:21:06;;;;;;;3.67;3.47;;;;;;;3.04;100.00;101317.94;6046533;23;20016;-70
2022/11/05 06:23:34;;;;;;;4.47;4.15;;;;;;;3.27;100.00;101355.72;6070515;23;20045;-70
2022/11/05 06:26:03;;;;;;;5.95;5.18;;;;;;;2.73;100.00;101279.41;6009343;23;20019;-72
2022/11/05 06:28:30;;;;;;;4.28;4.07;;;;;;;2.71;100.00;101268.19;6054470;23;20113;-70
2022/11/05 06:30:56;;;;;;;4.90;4.50;;;;;;;2.22;100.00;101188.38;6048185;23;21817;-71
2022/11/05 06:33:23;;;;;;;4.90;4.60;;;;;;;3.22;100.00;101354.94;6080842;23;20092;-70
2022/11/05 06:35:50;;;;;;;4.70;4.35;;;;;;;2.88;100.00;101309.47;6038579;23;20516;-71
2022/11/05 06:38:17;;;;;;;4.45;4.13;;;;;;;3.09;100.00;101346.44;6070632;23;20018;-71
2022/11/05 06:40:43;;;;;;;4.53;4.13;;;;;;;2.91;100.00;101322.41;6042415;23;20023;-71
2022/11/05 06:43:10;;;;;;;4.60;4.30;;;;;;;2.28;100.00;101234.91;6055376;23;20010;-71
2022/11/05 06:45:37;;;;;;;5.18;4.10;;;;;;;3.01;100.00;101349.09;6046973;23;20396;-71
2022/11/05 06:48:04;;;;;;;4.30;4.00;;;;;;;2.97;100.00;101348.28;6047786;23;20019;-72
2022/11/05 06:50:30;;;;;;;3.72;3.53;;;;;;;2.95;100.00;101336.22;6053732;23;20034;-71
2022/11/05 06:52:59;;;;;;;4.45;4.22;;;;;;;3.22;100.00;101381.72;6044370;23;20010;-70
2022/11/05 06:55:28;;;;;;;4.10;3.90;;;;;;;3.24;100.00;101386.91;6079145;23;20084;-72
2022/11/05 06:57:55;;;;;;;3.80;3.63;;;;;;;2.62;100.00;101288.16;6048936;23;20023;-72
2022/11/05 07:00:22;;;;;;;4.47;4.18;;;;;;;3.26;100.00;101392.94;6049988;23;20096;-72
2022/11/05 07:02:49;;;;;;;8.00;5.05;;;;;;;3.10;100.00;101355.94;6073515;23;20019;-71
2022/11/05 07:05:16;;;;;;;4.82;4.43;;;;;;;2.99;100.00;101337.91;6014296;23;20031;-71
2022/11/05 07:07:43;;;;;;;5.63;5.13;;;;;;;3.47;100.00;101409.97;6083789;23;20079;-72
2022/11/05 07:10:16;;;;;;;9.00;5.72;;;;;;;3.42;100.00;101412.63;6050155;23;20073;-71
2022/11/05 07:12:43;;;;;;;8.13;7.05;;;;;;;2.91;100.00;101347.50;6083090;23;20098;-70
2022/11/05 07:15:11;;;;;;;6.88;5.32;;;;;;;3.37;100.00;101414.44;6014248;23;20026;-71
2022/11/05 07:17:38;;;;;;;5.32;4.95;;;;;;;2.03;100.00;101189.44;6083985;23;20026;-70
2022/11/05 07:20:06;;;;;;;5.13;4.82;;;;;;;3.46;100.00;101414.31;6040428;23;20043;-70
2022/11/05 07:22:33;;;;;;;5.05;4.60;;;;;;;3.49;100.00;101424.69;6058188;23;20034;-71
2022/11/05 07:25:00;;;;;;;4.53;4.07;;;;;;;3.02;100.00;101348.22;6040599;23;20014;-71
2022/11/05 07:27:26;;;;;;;4.10;3.80;;;;;;;3.27;100.00;101386.84;6024226;23;20066;-71
2022/11/05 07:29:52;;;;;;;4.47;4.18;;;;;;;3.49;100.00;101419.50;6034152;23;20022;-71
2022/11/05 07:32:19;;;;;;;5.25;4.95;;;;;;;2.86;100.00;101302.59;6035621;23;20597;-70
2022/11/05 07:34:45;;;;;;;3.92;3.70;;;;;;;3.25;100.00;101371.31;6073106;23;20037;-71
2022/11/05 07:37:12;;;;;;;5.65;4.57;;;;;;;3.58;100.00;101408.97;6047770;23;20039;-72
2022/11/05 07:39:38;;;;;;;5.57;4.88;;;;;;;3.74;100.00;101429.56;6044735;23;20534;-70
2022/11/05 07:42:05;;;;;;;5.30;4.90;;;;;;;3.94;100.00;101452.69;6044912;23;20077;-70
2022/11/05 07:44:31;;;;;;;5.25;4.55;;;;;;;3.57;100.00;101391.72;6075429;23;20026;-70
2022/11/05 07:46:57;;;;;;;6.13;5.32;;;;;;;3.74;100.00;101396.69;6044629;23;20025;-72
2022/11/05 07:49:24;;;;;;;6.03;5.63;;;;;;;3.97;100.00;101424.97;6041743;23;20031;-71
2022/11/05 07:51:50;;;;;;;5.28;4.90;;;;;;;4.26;100.00;101459.22;6062962;23;20030;-70
2022/11/05 07:54:16;;;;;;;5.00;4.60;;;;;;;3.84;100.00;101374.06;6044833;23;20042;-71
2022/11/05 07:56:45;;;;;;;5.35;4.97;;;;;;;4.46;100.00;101466.72;6043628;23;20034;-71
2022/11/05 07:59:12;;;;;;;5.38;4.97;;;;;;;4.36;100.00;101435.66;6040270;23;20471;-71
2022/11/05 08:01:38;;;;;;;4.78;4.47;;;;;;;4.57;100.00;101447.50;6067913;23;20084;-71
2022/11/05 08:04:05;;;;;;;5.32;4.85;;;;;;;4.49;100.00;101431.16;6012682;23;20065;-71
2022/11/05 08:06:31;;;;;;;6.20;5.68;;;;;;;4.64;100.00;101455.19;6070610;23;20619;-71
2022/11/05 08:08:57;;;;;;;5.95;5.40;;;;;;;4.18;100.00;101347.59;6041284;23;20014;-71
2022/11/05 08:11:24;;;;;;;5.50;5.15;;;;;;;4.74;100.00;101421.22;6035867;23;20144;-71
2022/11/05 08:13:50;;;;;;;4.88;4.57;;;;;;;4.53;100.00;101370.44;6014120;23;20023;-71
2022/11/05 08:16:16;;;;;;;4.60;4.22;;;;;;;3.96;100.00;101258.78;6044052;23;20472;-71
2022/11/05 08:18:43;;;;;;;7.35;5.63;;;;;;;5.03;100.00;101425.06;6038857;23;20052;-70
2022/11/05 08:21:09;;;;;;;5.88;5.05;;;;;;;5.43;100.00;101468.59;6041563;23;20622;-71
2022/11/05 08:23:37;;;;;;;6.95;6.18;;;;;;;4.79;100.00;101343.13;6075758;23;20026;-70
2022/11/05 08:26:04;;;;;;;5.53;5.13;;;;;;;5.62;100.00;101474.31;6040084;23;20022;-71
2022/11/05 08:28:31;;;;;;;5.28;4.82;;;;;;;4.59;100.00;101288.88;6046884;23;20244;-70
2022/11/05 08:30:57;;;;;;;5.95;5.35;;;;;;;5.39;100.00;101410.53;6043595;23;20075;-71
2022/11/05 08:33:24;;;;;;;5.95;5.53;;;;;;;5.92;100.00;101478.06;6018081;23;20097;-71
2022/11/05 08:35:50;;;;;;;5.93;5.43;;;;;;;5.44;100.00;101375.75;6041237;23;20331;-71
2022/11/05 08:38:18;;;;;;;6.25;5.75;;;;;;;6.19;100.00;101474.06;6074777;23;20089;-71
2022/11/05 08:40:52;;;;;;;7.78;6.05;;;;;;;6.05;100.00;101434.41;6042456;23;20085;-71
2022/11/05 08:43:19;;;;;;;5.50;5.00;;;;;;;6.27;100.00;101458.25;6078300;23;20036;-70
2022/11/05 08:45:45;;;;;;;6.18;5.72;;;;;;;6.53;100.00;101480.28;6033953;23;20032;-71
2022/11/05 08:48:14;;;;;;;9.75;5.75;;;;;;;6.65;100.00;101481.75;6046420;23;20025;-73
2022/11/05 08:50:41;;;;;;;7.60;6.90;;;;;;;6.22;100.00;101401.91;6042735;23;20014;-71
2022/11/05 08:53:08;;;;;;;7.10;6.50;;;;;;;6.84;100.00;101476.97;6041674;23;20027;-71
2022/11/05 08:55:37;;;;;;;6.57;5.95;;;;;;;6.79;100.00;101464.00;6041195;23;20139;-71
2022/11/05 08:58:05;;;;;;;6.78;6.20;;;;;;;6.71;100.00;101440.72;6039149;23;20023;-71
2022/11/05 09:00:34;;;;;;;6.90;6.35;;;;;;;6.98;100.00;101480.94;6038505;23;20487;-72
2022/11/05 09:03:03;;;;;;;6.90;6.18;;;;;;;7.24;100.00;101486.41;6040160;23;20069;-71
2022/11/05 09:05:36;;;;;;;6.80;6.03;;;;;;;6.38;100.00;101312.03;6073419;23;20015;-71
2022/11/05 09:08:07;;;;;;;7.13;6.57;;;;;;;7.46;100.00;101477.13;6016717;23;20470;-72
2022/11/05 09:10:34;;;;;;;8.45;7.13;;;;;;;7.56;100.00;101472.50;6072767;23;20472;-71
2022/11/05 09:13:01;;;;;;;5.75;5.30;;;;;;;7.52;100.00;101453.44;6015670;23;20426;-71
2022/11/05 09:15:28;;;;;;;6.18;5.72;;;;;;;7.54;100.00;101464.69;6063567;23;20691;-72
2022/11/05 09:17:55;;;;;;;7.40;6.28;;;;;;;7.04;100.00;101336.41;6038529;23;20021;-71
2022/11/05 09:20:22;;;;;;;7.03;6.30;;;;;;;7.50;100.00;101423.91;6034472;23;20034;-72
2022/11/05 09:22:48;;;;;;;5.57;5.13;;;;;;;7.95;100.00;101439.16;6061413;23;20085;-71
2022/11/05 09:25:15;;;;;;;8.30;7.20;;;;;;;7.48;100.00;101344.72;6035925;23;20019;-71
2022/11/05 09:27:42;;;;;;;7.88;5.97;;;;;;;8.17;100.00;101420.22;6072989;23;20043;-71
2022/11/05 09:30:10;;;;;;;5.82;5.40;;;;;;;8.29;100.00;101422.44;6012873;23;20586;-72
2022/11/05 09:32:37;;;;;;;7.28;6.68;;;;;;;8.21;100.00;101405.28;6039597;23;20022;-71
2022/11/05 09:35:04;;;;;;;8.57;7.28;;;;;;;8.18;100.00;101374.88;6029933;23;20449;-71
2022/11/05 09:37:31;;;;;;;10.02;7.05;;;;;;;8.57;100.00;101409.38;6072902;23;20519;-72
2022/11/05 09:39:57;;;;;;;8.48;7.05;;;;;;;8.52;100.00;101374.69;6007071;23;20018;-72
2022/11/05 09:42:30;;;;;;;6.72;6.20;;;;;;;8.82;100.00;101392.88;6035891;23;20081;-72
2022/11/05 09:45:00;;;;;;;;;;;;;;;8.96;100.00;101406.34;6010951;23;20014;-72
2022/11/05 09:47:35;;;;;;;5.72;5.32;;;;;;;8.73;100.00;101340.84;6011477;23;20261;-72
2022/11/05 09:50:07;;;;;;;6.18;5.57;;;;;;;9.12;100.00;101385.75;6071733;23;20026;-72
2022/11/05 09:52:34;;;;;;;7.07;6.15;;;;;;;9.46;100.00;101412.47;6035601;23;20027;-72
2022/11/05 09:55:05;;;;;;;6.45;5.85;;;;;;;9.39;100.00;101388.28;6037847;23;20493;-73
2022/11/05 09:57:42;;;;;;;7.30;6.38;;;;;;;9.41;100.00;101383.00;6005640;23;20094;-72
2022/11/05 10:00:15;;;;;;;11.05;7.40;;;;;;;8.74;100.00;101233.50;6061546;23;20022;-72
2022/11/05 10:02:59;;;;;;;6.28;5.78;;;;;;;9.91;100.00;101407.31;6009734;23;20082;-73
2022/11/05 10:05:27;;;;;;;6.70;6.03;;;;;;;10.19;100.00;101419.38;6041788;23;20088;-72
2022/11/05 10:08:17;;;;;;;6.10;5.60;;;;;;;10.21;100.00;101420.16;6074412;23;20033;-72
2022/11/05 10:10:49;;;;;;;7.32;5.85;;;;;;;10.21;100.00;101388.69;6036647;23;20033;-73
2022/11/05 10:13:40;;;;;;;14.50;6.53;;;;;;;10.58;100.00;101422.22;6073618;23;20347;-73
2022/11/05 10:16:22;;;;;;;12.02;6.30;;;;;;;10.46;100.00;101379.84;6037735;23;20757;-72
2022/11/05 10:19:22;;;;;;;6.07;5.47;;;;;;;9.84;100.00;101264.25;6040432;23;20080;-72
2022/11/05 10:21:53;;;;;;;5.68;5.25;;;;;;;10.99;100.00;101426.66;6038097;23;20019;-72
2022/11/05 10:24:45;;;;;;;5.53;5.13;;;;;;;11.01;100.00;101416.94;6043205;23;20030;-71
2022/11/05 10:27:32;;;;;;;6.05;5.50;;;;;;;11.22;100.00;101419.56;6074169;23;20018;-72
2022/11/05 10:29:59;;;;;;;6.07;5.43;;;;;;;11.33;100.00;101426.06;6039180;23;20441;-72
2022/11/05 10:32:33;;;;;;;6.32;5.82;;;;;;;11.28;100.00;101404.38;6071886;23;20462;-72
2022/11/05 10:35:02;;;;;;;6.40;5.78;;;;;;;11.28;100.00;101396.50;6047880;23;20068;-72
2022/11/05 10:37:30;;;;;;;5.30;4.90;;;;;;;11.25;98.69;101388.75;6069973;23;20416;-72
2022/11/05 10:39:57;;;;;;;6.10;5.70;;;;;;;10.74;99.05;101303.44;6005925;23;20018;-73
2022/11/05 10:43:03;;;;;;;6.65;5.25;;;;;;;11.46;97.75;101423.72;6016901;23;20036;-70
2022/11/05 10:45:56;;;;;;;5.57;5.18;;;;;;;11.32;97.93;101426.97;6068577;23;20276;-71
2022/11/05 10:48:23;;;;;;;;;;;;;;;11.56;98.46;101435.53;6042177;23;20030;-72
2022/11/05 10:50:49;;;;;;;6.07;5.47;;;;;;;10.70;97.76;101275.59;6077525;23;20495;-72
2022/11/05 10:53:21;;;;;;;5.90;5.47;;;;;;;11.57;96.92;101395.22;6041806;23;20015;-72
2022/11/05 10:55:49;;;;;;;6.47;5.28;;;;;;;11.39;94.74;101369.75;6053243;23;20038;-71
2022/11/05 10:58:16;;;;;;;6.75;6.25;;;;;;;11.94;93.39;101426.88;6057312;23;20085;-72
2022/11/05 11:00:44;;;;;;;7.82;5.80;;;;;;;11.70;90.26;101387.59;6046752;23;20010;-72
2022/11/05 11:03:50;;;;;;;8.77;5.47;;;;;;;12.05;88.44;101415.88;6017013;23;20027;-73
2022/11/05 11:06:25;;;;;;;15.13;5.60;;;;;;;12.33;89.46;101416.28;6077520;23;20464;-72
2022/11/05 11:08:54;;;;;;;6.13;5.53;;;;;;;12.42;89.18;101382.53;6049400;23;20045;-72
2022/11/05 11:11:41;;;;;;;9.60;5.32;;;;;;;12.87;86.61;101423.28;6082741;23;20018;-71
2022/11/05 11:14:10;;;;;;;6.10;5.50;;;;;;;13.00;84.37;101416.50;6057464;23;20090;-71
2022/11/05 11:16:50;;;;;;;6.10;5.60;;;;;;;13.08;84.44;101414.31;6024969;23;20084;-71
2022/11/05 11:19:19;;;;;;;5.85;5.45;;;;;;;13.04;82.78;101401.38;6020600;23;20030;-72
2022/11/05 11:22:06;;;;;;;6.45;5.95;;;;;;;12.96;83.60;101391.22;6014302;23;20027;-72
2022/11/05 11:24:42;;;;;;;5.50;5.18;;;;;;;13.13;82.45;101398.28;6041150;23;20034;-72
2022/11/05 11:27:13;;;;;;;6.32;5.88;;;;;;;12.91;82.06;101374.78;6025261;23;20033;-72
2022/11/05 11:29:42;;;;;;;6.10;5.50;;;;;;;12.41;81.36;101351.84;6086225;23;20409;-72
2022/11/05 11:32:17;;;;;;;7.72;5.65;;;;;;;12.78;83.55;101399.13;6044987;23;20052;-71
2022/11/05 11:34:47;;;;;;;6.13;5.72;;;;;;;12.54;83.03;101398.56;6047834;23;20035;-71
2022/11/05 11:37:29;;;;;;;6.97;5.90;;;;;;;12.45;84.38;101398.16;6041309;23;20019;-71
2022/11/05 11:40:19;;;;;;;6.05;5.55;;;;;;;12.10;84.25;101364.72;6075006;23;20037;-73
2022/11/05 11:42:49;;;;;;;6.18;5.63;;;;;;;12.15;86.23;101375.91;6016340;23;20434;-72
2022/11/05 11:45:17;;;;;;;5.85;5.40;;;;;;;12.16;85.38;101406.53;6032229;23;20029;-71
2022/11/05 11:47:47;;;;;;;7.70;5.43;;;;;;;11.72;86.47;101366.50;6041294;23;20081;-72
2022/11/05 11:50:36;;;;;;;6.55;5.95;;;;;;;12.01;87.03;101423.06;6074846;23;20038;-71
2022/11/05 11:53:26;;;;;;;6.30;5.80;;;;;;;11.99;86.54;101422.28;6005905;23;20019;-73
2022/11/05 11:56:00;;;;;;;5.68;5.20;;;;;;;11.93;85.74;101420.78;6065487;23;20084;-70
2022/11/05 11:58:50;;;;;;;5.82;5.30;;;;;;;11.96;86.54;101415.34;6042916;23;20027;-72
2022/11/05 12:01:54;;;;;;;7.47;6.05;;;;;;;12.02;87.01;101421.28;6063384;23;20026;-71
2022/11/05 12:05:00;;;;;;;10.48;5.60;;;;;;;11.92;87.48;101384.88;6009690;23;20031;-71
2022/11/05 12:07:42;;;;;;;6.20;5.60;;;;;;;12.09;87.06;101404.28;6035827;23;20653;-72
2022/11/05 12:10:22;;;;;;;5.53;5.22;;;;;;;11.11;86.75;101250.13;6038572;23;20035;-71
2022/11/05 12:13:00;;;;;;;5.18;4.88;;;;;;;12.04;86.84;101419.44;6045302;23;20519;-71
2022/11/05 12:15:32;;;;;;;5.45;4.95;;;;;;;11.61;86.31;101359.13;6059998;23;20026;-71
2022/11/05 12:18:05;;;;;;;5.25;4.93;;;;;;;11.85;85.91;101417.63;6015422;23;20065;-71
2022/11/05 12:20:43;;;;;;;6.22;5.70;;;;;;;11.84;87.27;101405.38;6056431;23;20450;-71
2022/11/05 12:23:35;;;;;;;9.60;5.25;;;;;;;11.85;86.64;101404.47;6012917;23;20144;-71
2022/11/05 12:26:28;;;;;;;6.00;5.43;;;;;;;11.81;87.23;101429.22;6046515;23;20025;-71